createdAt,value
2022-09-01T00:01:08.041Z,1004.80
2022-09-01T00:06:07.992Z,1004.80
2022-09-01T00:11:07.916Z,1004.76
2022-09-01T00:16:07.920Z,1004.71
2022-09-01T00:21:07.773Z,1004.71
2022-09-01T00:26:07.709Z,1004.71
2022-09-01T00:31:07.695Z,1004.66
2022-09-01T00:36:07.581Z,1004.70
2022-09-01T00:41:07.510Z,1004.66
2022-09-01T00:46:07.498Z,1004.64
2022-09-01T00:51:07.391Z,1004.65
2022-09-01T00:56:07.343Z,1004.67
2022-09-01T01:01:07.290Z,1004.69
2022-09-01T01:06:07.198Z,1004.70
2022-09-01T01:11:07.109Z,1004.70
2022-09-01T01:16:07.053Z,1004.72
2022-09-01T01:21:06.976Z,1004.65
2022-09-01T01:26:06.916Z,1004.59
2022-09-01T01:31:07.004Z,1004.64
2022-09-01T01:36:06.796Z,1004.65
2022-09-01T01:41:06.712Z,1004.64
2022-09-01T01:46:06.789Z,1004.67
2022-09-01T01:51:06.577Z,1004.60
2022-09-01T01:56:06.535Z,1004.65
2022-09-01T02:01:06.595Z,1004.63
2022-09-01T02:06:06.390Z,1004.66
2022-09-01T02:11:06.316Z,1004.63
2022-09-01T02:16:06.267Z,1004.59
2022-09-01T02:21:06.184Z,1004.63
2022-09-01T02:26:15.992Z,1004.66
2022-09-01T02:31:06.116Z,1004.65
2022-09-01T02:36:06.007Z,1004.59
2022-09-01T02:41:05.925Z,1004.57
2022-09-01T02:46:05.942Z,1004.55
2022-09-01T02:51:05.810Z,1004.53
2022-09-01T02:56:05.742Z,1004.51
2022-09-01T03:01:05.912Z,1004.53
2022-09-01T03:06:05.610Z,1004.54
2022-09-01T03:11:08.620Z,1004.58
2022-09-01T03:16:05.535Z,1004.60
2022-09-01T03:21:05.410Z,1004.62
2022-09-01T03:26:05.356Z,1004.59
2022-09-01T03:31:05.277Z,1004.58
2022-09-01T03:36:05.233Z,1004.66
2022-09-01T03:41:05.149Z,1004.63
2022-09-01T03:46:05.137Z,1004.68
2022-09-01T03:51:05.026Z,1004.65
2022-09-01T03:56:04.966Z,1004.62
2022-09-01T04:01:04.988Z,1004.63
2022-09-01T04:06:04.838Z,1004.63
2022-09-01T04:11:04.751Z,1004.63
2022-09-01T04:16:04.793Z,1004.61
2022-09-01T04:21:04.630Z,1004.67
2022-09-01T04:26:04.581Z,1004.66
2022-09-01T04:31:04.498Z,1004.71
2022-09-01T04:36:04.429Z,1004.75
2022-09-01T04:41:04.358Z,1004.78
2022-09-01T04:46:04.360Z,1004.80
2022-09-01T04:51:04.233Z,1004.84
2022-09-01T04:56:04.174Z,1004.85
2022-09-01T05:01:04.208Z,1004.84
2022-09-01T05:06:04.077Z,1004.81
2022-09-01T05:11:03.970Z,1004.81
2022-09-01T05:16:03.986Z,1004.83
2022-09-01T05:21:03.838Z,1004.85
2022-09-01T05:26:03.769Z,1004.84
2022-09-01T05:31:03.750Z,1004.83
2022-09-01T05:36:03.641Z,1004.86
2022-09-01T05:41:03.567Z,1004.83
2022-09-01T05:46:06.971Z,1004.87
2022-09-01T05:51:03.460Z,1004.88
2022-09-01T05:56:03.392Z,1004.88
2022-09-01T06:01:03.316Z,1004.87
2022-09-01T06:06:03.245Z,1004.93
2022-09-01T06:11:03.182Z,1004.89
2022-09-01T06:16:03.160Z,1004.89
2022-09-01T06:21:03.049Z,1004.88
2022-09-01T06:26:02.980Z,1004.90
2022-09-01T06:31:02.979Z,1004.97
2022-09-01T06:36:02.864Z,1004.93
2022-09-01T06:41:02.790Z,1004.94
2022-09-01T06:46:02.730Z,1004.97
2022-09-01T06:51:20.513Z,1004.91
2022-09-01T06:56:03.632Z,1004.96
2022-09-01T07:01:02.530Z,1005.02
2022-09-01T07:06:02.964Z,1005.01
2022-09-01T07:26:04.412Z,1005.04
2022-09-01T07:31:48.899Z,1005.01
2022-09-01T07:42:31.425Z,1004.91
2022-09-01T07:46:36.742Z,1004.95
2022-09-01T07:56:02.855Z,1005.04
2022-09-01T08:01:01.755Z,1005.10
2022-09-01T08:06:01.689Z,1005.11
2022-09-01T08:11:05.002Z,1005.12
2022-09-01T08:16:15.971Z,1005.08
2022-09-01T08:21:02.530Z,1005.16
2022-09-01T08:26:01.438Z,1005.18
2022-09-01T08:31:01.442Z,1005.15
2022-09-01T08:36:01.327Z,1005.18
2022-09-01T08:41:01.321Z,1005.20
2022-09-01T08:46:01.267Z,1005.21
2022-09-01T08:51:01.137Z,1005.20
2022-09-01T08:56:01.095Z,1005.12
2022-09-01T09:01:01.012Z,1005.14
2022-09-01T09:06:00.941Z,1005.16
2022-09-01T09:11:00.884Z,1005.14
2022-09-01T09:16:08.613Z,1005.15
2022-09-01T09:21:00.745Z,1005.20
2022-09-01T09:26:00.689Z,1005.16
2022-09-01T09:31:00.706Z,1005.16
2022-09-01T09:36:00.569Z,1005.10
2022-09-01T09:41:16.518Z,1005.04
2022-09-01T09:46:01.492Z,1005.03
2022-09-01T09:51:00.378Z,1005.03
2022-09-01T09:56:00.329Z,1005.00
2022-09-01T10:01:00.322Z,1004.97
2022-09-01T10:06:01.071Z,1005.00
2022-09-01T10:11:00.152Z,1004.93
2022-09-01T10:16:00.091Z,1004.97
2022-09-01T10:20:59.998Z,1004.97
2022-09-01T10:25:59.941Z,1004.92
2022-09-01T10:30:59.915Z,1004.96
2022-09-01T10:35:59.813Z,1004.93
2022-09-01T10:40:59.802Z,1004.98
2022-09-01T10:46:05.709Z,1004.94
2022-09-01T10:51:00.836Z,1004.88
2022-09-01T10:56:01.921Z,1004.83
2022-09-01T11:01:25.333Z,1004.82
2022-09-01T11:06:12.144Z,1004.83
2022-09-01T11:11:00.420Z,1004.78
2022-09-01T11:16:00.785Z,1004.73
2022-09-01T11:20:59.253Z,1004.90
2022-09-01T11:31:00.178Z,1004.84
2022-09-01T11:35:59.052Z,1004.76
2022-09-01T11:40:59.079Z,1004.70
2022-09-01T11:45:59.020Z,1004.68
2022-09-01T11:50:58.864Z,1004.68
2022-09-01T11:55:58.789Z,1004.63
2022-09-01T12:00:58.716Z,1004.57
2022-09-01T12:05:58.667Z,1004.50
2022-09-01T12:10:58.595Z,1004.54
2022-09-01T12:16:17.428Z,1004.56
2022-09-01T12:20:59.491Z,1004.58
2022-09-01T12:25:58.393Z,1004.55
2022-09-01T12:30:58.329Z,1004.54
2022-09-01T12:35:59.611Z,1004.53
2022-09-01T12:40:58.197Z,1004.47
2022-09-01T12:45:58.243Z,1004.52
2022-09-01T12:50:58.072Z,1004.53
2022-09-01T12:55:58.011Z,1004.44
2022-09-01T13:00:58.083Z,1004.37
2022-09-01T13:05:57.895Z,1004.33
2022-09-01T13:10:57.810Z,1004.27
2022-09-01T13:15:57.770Z,1004.20
2022-09-01T13:20:57.680Z,1004.23
2022-09-01T13:25:58.062Z,1004.06
2022-09-01T13:35:58.601Z,1004.02
2022-09-01T13:40:57.496Z,1003.90
2022-09-01T13:45:57.435Z,1003.83
2022-09-01T14:00:57.200Z,1003.78
2022-09-01T14:05:57.121Z,1003.69
2022-09-01T14:10:57.130Z,1003.77
2022-09-01T14:15:57.006Z,1003.76
2022-09-01T14:20:56.901Z,1003.71
2022-09-01T14:25:56.831Z,1003.67
2022-09-01T14:31:41.669Z,1003.64
2022-09-01T14:36:41.592Z,1003.65
2022-09-01T14:41:41.533Z,1003.60
2022-09-01T14:46:41.548Z,1003.63
2022-09-01T14:56:42.398Z,1003.63
2022-09-01T15:01:41.366Z,1003.68
2022-09-01T15:06:41.202Z,1003.64
2022-09-01T15:11:44.008Z,1003.60
2022-09-01T15:16:41.069Z,1003.54
2022-09-01T15:21:41.022Z,1003.49
2022-09-01T15:26:40.983Z,1003.53
2022-09-01T15:31:40.935Z,1003.51
2022-09-01T15:36:40.802Z,1003.53
2022-09-01T15:41:40.743Z,1003.43
2022-09-01T15:46:40.697Z,1003.37
2022-09-01T15:51:40.603Z,1003.32
2022-09-01T15:56:40.530Z,1003.31
2022-09-01T16:01:40.523Z,1003.29
2022-09-01T16:06:40.396Z,1003.25
2022-09-01T16:11:40.352Z,1003.26
2022-09-01T16:16:41.129Z,1003.22
2022-09-01T16:21:40.224Z,1003.27
2022-09-01T16:26:40.132Z,1003.22
2022-09-01T16:31:40.200Z,1003.21
2022-09-01T16:36:40.015Z,1003.24
2022-09-01T16:41:39.951Z,1003.23
2022-09-01T16:46:39.923Z,1003.20
2022-09-01T16:51:39.842Z,1003.18
2022-09-01T16:56:39.751Z,1003.20
2022-09-01T17:01:39.764Z,1003.18
2022-09-01T17:06:39.612Z,1003.20
2022-09-01T17:11:39.561Z,1003.18
2022-09-01T17:16:39.491Z,1003.11
2022-09-01T17:21:39.427Z,1003.20
2022-09-01T17:26:39.355Z,1003.26
2022-09-01T17:31:39.340Z,1003.31
2022-09-01T17:36:41.323Z,1003.36
2022-09-01T17:41:39.164Z,1003.42
2022-09-01T17:46:39.170Z,1003.44
2022-09-01T17:51:39.026Z,1003.45
2022-09-01T17:56:38.952Z,1003.50
2022-09-01T18:01:38.950Z,1003.52
2022-09-01T18:06:38.818Z,1003.49
2022-09-01T18:11:38.759Z,1003.52
2022-09-01T18:16:38.763Z,1003.56
2022-09-01T18:21:38.619Z,1003.49
2022-09-01T18:26:38.533Z,1003.56
2022-09-01T18:31:38.506Z,1003.65
2022-09-01T18:36:38.393Z,1003.66
2022-09-01T18:41:38.342Z,1003.68
2022-09-01T18:46:38.336Z,1003.79
2022-09-01T18:51:38.215Z,1003.76
2022-09-01T18:56:38.229Z,1003.76
2022-09-01T19:01:38.185Z,1003.74
2022-09-01T19:06:38.011Z,1003.73
2022-09-01T19:11:37.941Z,1003.71
2022-09-01T19:16:37.889Z,1003.75
2022-09-01T19:21:37.822Z,1003.79
2022-09-01T19:26:37.740Z,1003.86
2022-09-01T19:31:37.686Z,1003.87
2022-09-01T19:36:37.621Z,1003.92
2022-09-01T19:41:37.567Z,1003.84
2022-09-01T19:46:37.554Z,1003.91
2022-09-01T19:51:37.427Z,1003.97
2022-09-01T19:56:37.341Z,1003.99
2022-09-01T20:01:37.382Z,1003.97
2022-09-01T20:06:37.210Z,1003.93
2022-09-01T20:11:37.147Z,1003.91
2022-09-01T20:16:37.073Z,1003.94
2022-09-01T20:21:37.034Z,1003.92
2022-09-01T20:26:36.947Z,1003.95
2022-09-01T20:31:36.887Z,1003.93
2022-09-01T20:36:36.804Z,1003.94
2022-09-01T20:41:39.534Z,1003.98
2022-09-01T20:46:36.761Z,1003.98
2022-09-01T20:51:36.619Z,1004.02
2022-09-01T20:56:36.546Z,1004.08
2022-09-01T21:01:36.567Z,1004.07
2022-09-01T21:06:36.411Z,1004.03
2022-09-01T21:11:36.351Z,1004.02
2022-09-01T21:16:36.324Z,1003.99
2022-09-01T21:21:36.224Z,1004.02
2022-09-01T21:26:36.151Z,1004.04
2022-09-01T21:31:36.078Z,1004.07
2022-09-01T21:36:36.028Z,1004.03
2022-09-01T21:41:35.959Z,1004.06
2022-09-01T21:46:35.883Z,1004.04
2022-09-01T21:51:35.836Z,1004.02
2022-09-01T21:56:35.757Z,1004.04
2022-09-01T22:01:35.800Z,1004.02
2022-09-01T22:06:35.611Z,1003.97
2022-09-01T22:11:35.547Z,1003.95
2022-09-01T22:16:35.540Z,1003.95
2022-09-01T22:21:35.410Z,1003.95
2022-09-01T22:26:35.328Z,1003.91
2022-09-01T22:31:35.275Z,1003.90
2022-09-01T22:36:35.184Z,1003.89
2022-09-01T22:41:35.137Z,1003.94
2022-09-01T22:46:35.061Z,1004.01
2022-09-01T22:51:34.998Z,1003.96
2022-09-01T22:56:34.923Z,1003.99
2022-09-01T23:01:34.965Z,1003.99
2022-09-01T23:06:34.790Z,1003.91
2022-09-01T23:11:34.731Z,1003.91
2022-09-01T23:16:34.781Z,1003.87
2022-09-01T23:21:34.589Z,1003.81
2022-09-01T23:26:34.517Z,1003.80
2022-09-01T23:31:34.548Z,1003.77
2022-09-01T23:36:34.393Z,1003.80
2022-09-01T23:41:34.329Z,1003.78
2022-09-01T23:46:34.254Z,1003.70
2022-09-01T23:51:34.203Z,1003.70
2022-09-01T23:56:34.130Z,1003.68
